createdAt,value
2022-12-01T00:01:58.258Z,22.83
2022-12-01T00:05:00.329Z,20.15
2022-12-01T00:08:03.089Z,20.55
2022-12-01T00:11:06.137Z,23.63
2022-12-01T00:14:08.135Z,19.90
2022-12-01T00:17:10.089Z,20.15
2022-12-01T00:20:12.246Z,23.27
2022-12-01T00:23:14.252Z,21.27
2022-12-01T00:26:17.033Z,21.15
2022-12-01T00:29:19.021Z,23.00
2022-12-01T00:32:21.071Z,27.05
2022-12-01T00:35:23.063Z,24.95
2022-12-01T00:38:25.038Z,19.48
2022-12-01T00:41:27.052Z,15.03
2022-12-01T00:44:29.081Z,21.80
2022-12-01T00:47:31.687Z,17.90
2022-12-01T00:50:33.768Z,25.23
2022-12-01T00:53:35.809Z,30.27
2022-12-01T00:56:37.800Z,19.98
2022-12-01T00:59:39.894Z,23.85
2022-12-01T01:02:41.890Z,22.35
2022-12-01T01:05:44.100Z,23.45
2022-12-01T01:08:46.210Z,23.73
2022-12-01T01:11:48.511Z,23.77
2022-12-01T01:14:50.505Z,22.02
2022-12-01T01:17:52.842Z,21.88
2022-12-01T01:20:55.670Z,17.93
2022-12-01T01:23:57.677Z,22.40
2022-12-01T01:26:59.780Z,18.98
2022-12-01T01:30:01.800Z,22.02
2022-12-01T01:33:03.884Z,19.65
2022-12-01T01:36:06.068Z,22.55
2022-12-01T01:39:08.104Z,21.05
2022-12-01T01:42:12.923Z,19.27
2022-12-01T01:45:20.190Z,22.17
2022-12-01T01:48:22.189Z,19.45
2022-12-01T01:51:27.197Z,25.30
2022-12-01T01:54:31.712Z,22.40
2022-12-01T01:57:34.160Z,20.52
2022-12-01T02:00:37.157Z,23.08
2022-12-01T02:03:40.066Z,23.20
2022-12-01T02:06:42.075Z,22.17
2022-12-01T02:09:45.108Z,26.60
2022-12-01T02:13:06.251Z,21.50
2022-12-01T02:16:34.050Z,27.13
2022-12-01T02:19:39.086Z,21.10
2022-12-01T02:22:59.283Z,27.67
2022-12-01T02:26:20.145Z,27.88
2022-12-01T02:29:31.081Z,22.45
2022-12-01T02:32:44.985Z,22.67
2022-12-01T02:35:46.948Z,24.15
2022-12-01T02:38:58.289Z,25.00
2022-12-01T02:42:44.960Z,29.35
2022-12-01T02:45:49.863Z,30.23
2022-12-01T02:48:53.760Z,13.18
2022-12-01T02:51:57.302Z,27.05
2022-12-01T02:54:59.297Z,23.07
2022-12-01T02:58:01.369Z,18.00
2022-12-01T03:01:24.809Z,27.85
2022-12-01T03:04:45.528Z,27.65
2022-12-01T03:08:13.941Z,27.17
2022-12-01T03:11:27.190Z,25.10
2022-12-01T03:14:32.154Z,28.50
2022-12-01T03:17:40.244Z,26.77
2022-12-01T03:20:48.457Z,30.17
2022-12-01T03:23:53.079Z,27.58
2022-12-01T03:26:57.186Z,28.80
2022-12-01T03:30:01.312Z,32.30
2022-12-01T03:33:18.822Z,26.58
2022-12-01T03:36:25.597Z,28.85
2022-12-01T03:39:33.430Z,30.77
2022-12-01T03:42:38.815Z,26.50
2022-12-01T03:45:46.151Z,29.38
2022-12-01T03:48:48.253Z,23.67
2022-12-01T03:52:00.788Z,26.60
2022-12-01T03:55:24.679Z,28.40
2022-12-01T03:58:41.645Z,33.93
2022-12-01T04:01:45.164Z,32.03
2022-12-01T04:04:47.216Z,30.17
2022-12-01T04:07:49.292Z,34.25
2022-12-01T04:10:51.504Z,29.52
2022-12-01T04:13:53.473Z,29.38
2022-12-01T04:16:55.491Z,27.20
2022-12-01T04:19:57.649Z,28.57
2022-12-01T04:22:59.671Z,32.50
2022-12-01T04:26:02.652Z,36.25
2022-12-01T04:29:06.151Z,26.80
2022-12-01T04:32:08.188Z,30.80
2022-12-01T04:35:11.288Z,32.45
2022-12-01T04:38:13.363Z,26.73
2022-12-01T04:41:15.360Z,31.25
2022-12-01T04:44:17.375Z,26.77
2022-12-01T04:47:19.411Z,25.90
2022-12-01T04:50:21.388Z,26.37
2022-12-01T04:53:23.481Z,25.75
2022-12-01T04:56:25.631Z,27.02
2022-12-01T04:59:27.911Z,26.60
2022-12-01T05:02:29.933Z,38.70
2022-12-01T05:05:32.052Z,30.95
2022-12-01T05:08:34.404Z,32.17
2022-12-01T05:11:37.084Z,30.58
2022-12-01T05:14:39.225Z,36.55
2022-12-01T05:17:41.445Z,35.15
2022-12-01T05:20:58.777Z,31.47
2022-12-01T05:24:00.745Z,35.15
2022-12-01T05:27:02.767Z,28.08
2022-12-01T05:30:05.153Z,31.77
2022-12-01T05:33:07.201Z,28.65
2022-12-01T05:36:09.417Z,28.50
2022-12-01T05:39:11.408Z,27.25
2022-12-01T05:42:13.432Z,28.70
2022-12-01T05:45:15.485Z,31.27
2022-12-01T05:48:18.053Z,27.45
2022-12-01T05:51:20.227Z,21.40
2022-12-01T05:54:22.301Z,24.23
2022-12-01T05:57:24.281Z,27.30
2022-12-01T06:00:26.373Z,25.87
2022-12-01T06:03:28.408Z,26.23
2022-12-01T06:06:30.401Z,32.88
2022-12-01T06:09:32.445Z,29.05
2022-12-01T06:12:34.451Z,23.83
2022-12-01T06:15:36.823Z,37.40
2022-12-01T06:18:38.882Z,33.10
2022-12-01T06:21:40.941Z,31.70
2022-12-01T06:24:44.310Z,32.60
2022-12-01T06:27:47.363Z,16.23
2022-12-01T06:30:49.668Z,28.37
2022-12-01T06:33:51.744Z,27.00
2022-12-01T06:36:53.820Z,36.67
2022-12-01T06:39:55.887Z,33.20
2022-12-01T06:43:04.338Z,29.83
2022-12-01T06:46:06.759Z,24.63
2022-12-01T06:49:12.563Z,36.38
2022-12-01T06:52:14.634Z,26.47
2022-12-01T06:55:16.685Z,27.13
2022-12-01T06:58:18.897Z,27.75
2022-12-01T07:01:21.510Z,32.30
2022-12-01T07:04:23.767Z,27.73
2022-12-01T07:07:26.238Z,30.25
2022-12-01T07:10:28.524Z,27.42
2022-12-01T07:13:33.674Z,28.25
2022-12-01T07:16:36.251Z,27.95
2022-12-01T07:19:38.404Z,27.58
2022-12-01T07:22:40.454Z,22.63
2022-12-01T07:25:42.701Z,27.45
2022-12-01T07:28:45.283Z,32.25
2022-12-01T07:31:47.355Z,29.80
2022-12-01T07:34:49.471Z,30.73
2022-12-01T07:37:55.796Z,31.25
2022-12-01T07:41:08.159Z,33.17
2022-12-01T07:44:10.858Z,32.58
2022-12-01T07:47:13.069Z,29.85
2022-12-01T07:50:15.367Z,29.25
2022-12-01T07:53:17.658Z,30.23
2022-12-01T07:56:20.478Z,27.33
2022-12-01T07:59:22.642Z,23.77
2022-12-01T08:02:24.906Z,17.53
2022-12-01T08:05:27.028Z,20.65
2022-12-01T08:08:29.797Z,23.88
2022-12-01T08:11:32.015Z,25.83
2022-12-01T08:14:34.107Z,17.83
2022-12-01T08:17:36.229Z,21.08
2022-12-01T08:20:38.343Z,22.73
2022-12-01T08:23:42.729Z,23.83
2022-12-01T08:26:45.025Z,22.70
2022-12-01T08:29:47.209Z,20.00
2022-12-01T08:32:49.664Z,20.03
2022-12-01T08:35:51.900Z,23.88
2022-12-01T08:38:54.764Z,23.88
2022-12-01T08:41:56.932Z,24.55
2022-12-01T08:45:00.551Z,20.25
2022-12-01T08:48:03.104Z,20.33
2022-12-01T08:51:05.412Z,24.00
2022-12-01T08:54:07.446Z,22.50
2022-12-01T08:57:09.570Z,21.43
2022-12-01T09:00:12.493Z,21.35
2022-12-01T09:03:14.581Z,21.33
2022-12-01T09:06:17.945Z,21.42
2022-12-01T09:09:24.331Z,21.20
2022-12-01T09:12:28.506Z,16.77
2022-12-01T09:15:30.579Z,21.67
2022-12-01T09:18:32.707Z,18.00
2022-12-01T09:21:37.039Z,24.03
2022-12-01T09:24:39.093Z,15.75
2022-12-01T09:27:41.247Z,20.52
2022-12-01T09:30:44.039Z,18.92
2022-12-01T09:33:46.582Z,19.43
2022-12-01T09:36:48.886Z,19.52
2022-12-01T09:39:51.317Z,14.95
2022-12-01T09:42:53.746Z,23.00
2022-12-01T09:46:07.745Z,15.53
2022-12-01T09:49:23.098Z,18.65
2022-12-01T09:52:26.834Z,19.80
2022-12-01T09:55:30.442Z,15.95
2022-12-01T09:58:33.111Z,17.70
2022-12-01T10:01:38.908Z,17.03
2022-12-01T10:04:42.717Z,18.42
2022-12-01T10:07:47.511Z,16.70
2022-12-01T10:10:50.910Z,17.00
2022-12-01T10:13:52.972Z,20.80
2022-12-01T10:17:03.816Z,19.55
2022-12-01T10:20:08.693Z,17.65
2022-12-01T10:23:13.978Z,23.40
2022-12-01T10:26:28.465Z,18.03
2022-12-01T10:29:30.593Z,19.15
2022-12-01T10:32:32.938Z,23.70
2022-12-01T10:35:37.729Z,14.50
2022-12-01T10:38:40.301Z,21.43
2022-12-01T10:41:42.787Z,19.77
2022-12-01T10:44:45.333Z,16.63
2022-12-01T10:48:06.414Z,18.02
2022-12-01T10:51:15.814Z,23.57
2022-12-01T10:54:18.043Z,29.33
2022-12-01T10:57:20.097Z,29.67
2022-12-01T11:04:08.167Z,18.27
2022-12-01T11:07:15.009Z,23.03
2022-12-01T11:10:27.544Z,26.08
2022-12-01T11:13:31.356Z,24.63
2022-12-01T11:16:41.537Z,24.92
2022-12-01T11:19:43.915Z,19.77
2022-12-01T11:22:46.089Z,18.13
2022-12-01T11:25:59.454Z,17.17
2022-12-01T11:29:03.678Z,18.92
2022-12-01T11:32:25.750Z,16.65
2022-12-01T11:35:35.553Z,15.63
2022-12-01T11:38:37.639Z,14.83
2022-12-01T11:41:40.738Z,21.30
2022-12-01T11:44:55.047Z,17.60
2022-12-01T11:48:12.577Z,15.32
2022-12-01T11:51:14.625Z,15.27
2022-12-01T11:54:16.815Z,16.00
2022-12-01T11:57:33.765Z,17.38
2022-12-01T12:00:56.276Z,17.10
2022-12-01T12:04:04.170Z,16.00
2022-12-01T12:07:15.219Z,15.85
2022-12-01T12:10:35.800Z,16.87
2022-12-01T12:13:56.834Z,19.40
2022-12-01T12:17:16.307Z,15.07
2022-12-01T12:20:37.551Z,21.85
2022-12-01T12:23:51.748Z,24.27
2022-12-01T12:27:15.639Z,19.47
2022-12-01T12:30:20.598Z,23.13
2022-12-01T12:33:31.838Z,18.10
2022-12-01T12:36:47.149Z,18.52
2022-12-01T12:39:57.636Z,17.75
2022-12-01T12:43:18.785Z,15.67
2022-12-01T12:46:41.197Z,19.65
2022-12-01T12:49:45.969Z,16.13
2022-12-01T12:52:50.126Z,19.35
2022-12-01T12:55:54.180Z,17.30
2022-12-01T12:58:56.255Z,13.93
2022-12-01T13:02:01.157Z,21.27
2022-12-01T13:05:07.147Z,18.20
2022-12-01T13:08:47.873Z,16.25
2022-12-01T13:11:58.191Z,16.45
2022-12-01T13:15:18.336Z,24.93
2022-12-01T13:18:27.463Z,20.38
2022-12-01T13:21:32.447Z,16.60
2022-12-01T13:24:34.608Z,20.15
2022-12-01T13:27:38.565Z,16.47
2022-12-01T13:30:40.916Z,27.67
2022-12-01T13:33:54.322Z,24.67
2022-12-01T13:36:56.740Z,22.80
2022-12-01T13:40:10.010Z,23.17
2022-12-01T13:43:22.007Z,24.85
2022-12-01T13:46:44.404Z,21.70
2022-12-01T13:49:48.673Z,23.23
2022-12-01T13:52:51.288Z,47.10
2022-12-01T13:55:59.562Z,32.92
2022-12-01T13:59:02.119Z,41.70
2022-12-01T14:02:22.334Z,31.45
2022-12-01T14:05:39.797Z,42.90
2022-12-01T14:08:59.935Z,34.63
2022-12-01T14:12:13.847Z,52.27
2022-12-01T14:15:35.929Z,39.67
2022-12-01T14:18:40.625Z,56.47
2022-12-01T14:21:49.785Z,52.13
2022-12-01T14:24:53.016Z,65.55
2022-12-01T14:27:56.919Z,52.50
2022-12-01T14:31:01.941Z,128.98
2022-12-01T14:34:18.787Z,145.43
2022-12-01T14:37:24.314Z,78.10
2022-12-01T14:40:29.253Z,72.25
2022-12-01T14:43:49.996Z,87.00
2022-12-01T14:47:10.730Z,57.60
2022-12-01T14:50:19.818Z,44.28
2022-12-01T14:53:24.982Z,49.43
2022-12-01T14:56:27.576Z,57.40
2022-12-01T14:59:29.746Z,57.55
2022-12-01T15:02:32.350Z,55.10
2022-12-01T15:05:38.978Z,67.97
2022-12-01T15:08:45.738Z,66.38
2022-12-01T15:11:56.078Z,46.08
2022-12-01T15:14:58.201Z,50.40
2022-12-01T15:18:01.948Z,44.83
2022-12-01T15:21:19.669Z,52.28
2022-12-01T15:24:23.088Z,38.87
2022-12-01T15:27:26.646Z,41.05
2022-12-01T15:30:28.684Z,38.05
2022-12-01T15:33:36.994Z,38.08
2022-12-01T15:36:39.724Z,33.60
2022-12-01T15:39:46.275Z,36.45
2022-12-01T15:43:01.662Z,46.15
2022-12-01T15:46:19.017Z,39.00
2022-12-01T15:49:27.719Z,42.38
2022-12-01T15:52:29.890Z,48.17
2022-12-01T15:55:33.644Z,48.80
2022-12-01T15:58:40.662Z,55.33
2022-12-01T16:01:43.773Z,48.40
2022-12-01T16:04:46.480Z,48.05
2022-12-01T16:11:15.747Z,40.92
2022-12-01T16:14:23.106Z,45.95
2022-12-01T16:17:25.333Z,42.80
2022-12-01T16:20:35.666Z,41.10
2022-12-01T16:23:37.711Z,40.55
2022-12-01T16:26:46.722Z,37.13
2022-12-01T16:29:51.609Z,41.78
2022-12-01T16:33:00.988Z,34.92
2022-12-01T16:36:03.562Z,41.40
2022-12-01T16:39:07.900Z,37.42
2022-12-01T16:42:14.315Z,39.92
2022-12-01T16:45:17.671Z,36.45
2022-12-01T16:48:20.440Z,41.23
2022-12-01T16:51:29.995Z,41.53
2022-12-01T16:54:44.499Z,43.83
2022-12-01T16:57:46.474Z,41.57
2022-12-01T17:00:52.772Z,36.75
2022-12-01T17:03:54.901Z,39.00
2022-12-01T17:06:56.924Z,38.13
2022-12-01T17:09:59.165Z,48.00
2022-12-01T17:13:01.229Z,49.83
2022-12-01T17:16:04.637Z,46.63
2022-12-01T17:19:06.755Z,46.50
2022-12-01T17:22:08.779Z,55.13
2022-12-01T17:25:10.866Z,48.70
2022-12-01T17:28:12.863Z,47.73
2022-12-01T17:31:15.143Z,49.00
2022-12-01T17:34:17.237Z,46.65
2022-12-01T17:37:21.295Z,37.70
2022-12-01T17:40:23.488Z,47.78
2022-12-01T17:43:25.510Z,45.38
2022-12-01T17:46:27.604Z,44.30
2022-12-01T17:49:29.704Z,42.57
2022-12-01T17:52:31.752Z,45.00
2022-12-01T17:55:33.796Z,44.00
2022-12-01T17:58:36.181Z,51.63
2022-12-01T18:01:38.204Z,54.78
2022-12-01T18:04:40.318Z,56.75
2022-12-01T18:07:42.444Z,56.22
2022-12-01T18:10:44.556Z,47.33
2022-12-01T18:13:48.272Z,44.92
2022-12-01T18:16:50.325Z,58.03
2022-12-01T18:19:52.351Z,61.37
2022-12-01T18:22:54.311Z,62.50
2022-12-01T18:25:56.485Z,64.55
2022-12-01T18:28:59.556Z,62.00
2022-12-01T18:32:01.608Z,51.00
2022-12-01T18:35:03.667Z,55.33
2022-12-01T18:38:05.676Z,42.60
2022-12-01T18:41:07.763Z,50.38
2022-12-01T18:44:09.800Z,40.60
2022-12-01T18:47:11.875Z,45.42
2022-12-01T18:50:13.857Z,46.03
2022-12-01T18:53:15.941Z,41.78
2022-12-01T18:56:19.817Z,58.83
2022-12-01T18:59:22.045Z,63.63
2022-12-01T19:02:24.317Z,65.10
2022-12-01T19:05:26.651Z,52.15
2022-12-01T19:08:28.714Z,51.97
2022-12-01T19:11:30.832Z,86.13
2022-12-01T19:14:32.963Z,48.22
2022-12-01T19:17:35.156Z,33.92
2022-12-01T19:20:38.075Z,35.87
2022-12-01T19:23:40.371Z,36.33
2022-12-01T19:26:42.484Z,34.45
2022-12-01T19:29:44.520Z,39.80
2022-12-01T19:32:48.244Z,40.00
2022-12-01T19:35:50.265Z,47.22
2022-12-01T19:38:52.324Z,42.60
2022-12-01T19:41:56.248Z,39.30
2022-12-01T19:44:58.695Z,39.60
2022-12-01T19:48:00.717Z,47.30
2022-12-01T19:51:03.049Z,40.20
2022-12-01T19:54:06.055Z,49.08
2022-12-01T19:57:08.124Z,41.80
2022-12-01T20:00:10.437Z,51.43
2022-12-01T20:03:16.164Z,51.78
2022-12-01T20:06:19.645Z,46.83
2022-12-01T20:09:22.004Z,42.83
2022-12-01T20:12:23.967Z,49.22
2022-12-01T20:15:26.035Z,46.67
2022-12-01T20:18:28.004Z,42.95
2022-12-01T20:21:31.774Z,44.30
2022-12-01T20:24:33.730Z,47.63
2022-12-01T20:27:36.112Z,49.70
2022-12-01T20:30:39.726Z,43.93
2022-12-01T20:33:41.874Z,46.22
2022-12-01T20:36:44.344Z,46.83
2022-12-01T20:39:47.498Z,45.60
2022-12-01T20:42:49.490Z,39.40
2022-12-01T20:45:51.743Z,41.92
2022-12-01T20:48:53.760Z,43.83
2022-12-01T20:51:55.837Z,38.87
2022-12-01T20:54:57.878Z,40.25
2022-12-01T20:57:59.863Z,43.55
2022-12-01T21:01:06.608Z,44.90
2022-12-01T21:04:08.792Z,35.53
2022-12-01T21:07:10.873Z,39.97
2022-12-01T21:10:18.500Z,34.47
2022-12-01T21:13:42.045Z,38.05
2022-12-01T21:16:48.305Z,39.42
2022-12-01T21:19:56.529Z,35.20
2022-12-01T21:23:01.269Z,35.27
2022-12-01T21:26:08.838Z,35.72
2022-12-01T21:29:31.098Z,36.28
2022-12-01T21:32:34.188Z,38.73
2022-12-01T21:35:36.190Z,37.80
2022-12-01T21:38:38.201Z,52.00
2022-12-01T21:41:40.442Z,45.65
2022-12-01T21:44:42.788Z,43.42
2022-12-01T21:47:44.752Z,47.10
2022-12-01T21:50:50.949Z,52.65
2022-12-01T21:53:56.160Z,44.70
2022-12-01T21:56:58.670Z,53.85
2022-12-01T22:00:21.239Z,45.90
2022-12-01T22:03:26.169Z,51.50
2022-12-01T22:06:32.779Z,47.50
2022-12-01T22:09:35.492Z,48.05
2022-12-01T22:12:37.712Z,51.10
2022-12-01T22:15:41.336Z,55.83
2022-12-01T22:18:49.426Z,54.05
2022-12-01T22:22:00.798Z,49.47
2022-12-01T22:25:15.969Z,48.00
2022-12-01T22:28:23.411Z,41.60
2022-12-01T22:31:26.178Z,45.25
2022-12-01T22:34:28.332Z,45.53
2022-12-01T22:37:36.445Z,40.53
2022-12-01T22:40:44.205Z,43.40
2022-12-01T22:44:04.390Z,37.95
2022-12-01T22:47:09.099Z,40.15
2022-12-01T22:50:26.274Z,37.92
2022-12-01T22:53:29.864Z,41.28
2022-12-01T22:56:35.432Z,34.67
2022-12-01T22:59:38.566Z,41.33
2022-12-01T23:02:40.654Z,37.65
2022-12-01T23:05:42.810Z,36.87
2022-12-01T23:08:44.817Z,40.70
2022-12-01T23:11:52.360Z,38.10
2022-12-01T23:14:55.994Z,36.80
2022-12-01T23:18:19.058Z,33.08
2022-12-01T23:21:21.075Z,31.95
2022-12-01T23:24:23.106Z,32.78
2022-12-01T23:27:25.129Z,32.90
2022-12-01T23:30:27.182Z,34.55
2022-12-01T23:33:30.084Z,37.88
2022-12-01T23:36:32.055Z,35.57
2022-12-01T23:39:35.517Z,35.10
2022-12-01T23:42:37.533Z,37.85
2022-12-01T23:45:39.630Z,36.85
2022-12-01T23:48:43.596Z,35.05
2022-12-01T23:51:47.469Z,32.28
2022-12-01T23:54:49.896Z,37.03
2022-12-01T23:57:52.531Z,31.73
